Aviation Digital Data Service (ADDS)

Output produced by TAFs form (1146 UTC 27 May 2017)
found at http://www.aviationweather.gov/adds/tafs/
 
METAR text: RJAF 270700Z 35011KT 9999 FEW070 21/10 Q1006
Conditions at: RJAF (MATSUMOTO AIRPOR, JP) observed 0700 UTC 27 May 2017
Temperature: 21.0°C (70°F)
Dewpoint: 10.0°C (50°F) [RH = 49%]
Pressure (altimeter): 29.70 inches Hg (1006.0 mb)
Winds: from the N (350 degrees) at 13 MPH (11 knots; 5.7 m/s)
Visibility: 6 or more miles (10+ km)
Ceiling: at least 12,000 feet AGL
Clouds: few clouds at 7000 feet AGL
Weather: no significant weather observed at this time